sensor_id;sensor_type;location;lat;lon;timestamp;pressure;altitude;pressure_sealevel;temperature
71640;BMP280;60912;48.968;10.124;2022-12-31T00:02:08;96377.19;;;11.67
71640;BMP280;60912;48.968;10.124;2022-12-31T00:04:33;96380.34;;;11.71
71640;BMP280;60912;48.968;10.124;2022-12-31T00:06:58;96381.22;;;11.74
71640;BMP280;60912;48.968;10.124;2022-12-31T00:09:24;96384.19;;;11.76
71640;BMP280;60912;48.968;10.124;2022-12-31T00:11:49;96379.75;;;11.80
71640;BMP280;60912;48.968;10.124;2022-12-31T00:14:15;96372.38;;;11.83
71640;BMP280;60912;48.968;10.124;2022-12-31T00:16:41;96377.34;;;11.77
71640;BMP280;60912;48.968;10.124;2022-12-31T00:19:09;96379.03;;;11.72
71640;BMP280;60912;48.968;10.124;2022-12-31T00:21:34;96380.34;;;11.71
71640;BMP280;60912;48.968;10.124;2022-12-31T00:24:01;96386.38;;;11.77
71640;BMP280;60912;48.968;10.124;2022-12-31T00:26:29;96386.72;;;11.81
71640;BMP280;60912;48.968;10.124;2022-12-31T00:28:56;96402.00;;;11.82
71640;BMP280;60912;48.968;10.124;2022-12-31T00:31:24;96409.19;;;11.85
71640;BMP280;60912;48.968;10.124;2022-12-31T00:33:50;96418.41;;;11.88
71640;BMP280;60912;48.968;10.124;2022-12-31T00:36:18;96420.56;;;11.89
71640;BMP280;60912;48.968;10.124;2022-12-31T00:38:46;96412.16;;;11.87
71640;BMP280;60912;48.968;10.124;2022-12-31T00:41:12;96413.44;;;11.86
71640;BMP280;60912;48.968;10.124;2022-12-31T00:43:38;96421.72;;;11.86
71640;BMP280;60912;48.968;10.124;2022-12-31T00:46:05;96422.47;;;11.87
71640;BMP280;60912;48.968;10.124;2022-12-31T00:48:31;96431.59;;;11.89
71640;BMP280;60912;48.968;10.124;2022-12-31T00:50:57;96432.94;;;11.88
71640;BMP280;60912;48.968;10.124;2022-12-31T00:53:24;96439.34;;;11.91
71640;BMP280;60912;48.968;10.124;2022-12-31T00:55:49;96436.97;;;11.95
71640;BMP280;60912;48.968;10.124;2022-12-31T00:58:15;96436.97;;;11.95
71640;BMP280;60912;48.968;10.124;2022-12-31T01:00:40;96441.91;;;11.96
71640;BMP280;60912;48.968;10.124;2022-12-31T01:03:06;96437.88;;;11.90
71640;BMP280;60912;48.968;10.124;2022-12-31T01:05:32;96441.38;;;11.90
71640;BMP280;60912;48.968;10.124;2022-12-31T01:07:58;96452.22;;;11.96
71640;BMP280;60912;48.968;10.124;2022-12-31T01:10:24;96445.81;;;12.01
71640;BMP280;60912;48.968;10.124;2022-12-31T01:13:08;96447.97;;;12.03
71640;BMP280;60912;48.968;10.124;2022-12-31T01:15:35;96450.59;;;12.01
71640;BMP280;60912;48.968;10.124;2022-12-31T01:18:05;96450.72;;;12.03
71640;BMP280;60912;48.968;10.124;2022-12-31T01:20:37;96449.63;;;12.06
71640;BMP280;60912;48.968;10.124;2022-12-31T01:23:04;96455.50;;;12.10
71640;BMP280;60912;48.968;10.124;2022-12-31T01:25:30;96450.72;;;12.10
71640;BMP280;60912;48.968;10.124;2022-12-31T01:27:55;96453.47;;;12.03
71640;BMP280;60912;48.968;10.124;2022-12-31T01:30:20;96457.72;;;12.04
71640;BMP280;60912;48.968;10.124;2022-12-31T01:32:46;96462.91;;;12.00
71640;BMP280;60912;48.968;10.124;2022-12-31T01:35:11;96467.28;;;12.03
71640;BMP280;60912;48.968;10.124;2022-12-31T01:37:36;96461.78;;;12.03
71640;BMP280;60912;48.968;10.124;2022-12-31T01:40:03;96461.41;;;12.06
71640;BMP280;60912;48.968;10.124;2022-12-31T01:42:29;96464.88;;;12.14
71640;BMP280;60912;48.968;10.124;2022-12-31T01:44:54;96462.88;;;12.15
71640;BMP280;60912;48.968;10.124;2022-12-31T01:47:34;96465.25;;;12.18
71640;BMP280;60912;48.968;10.124;2022-12-31T01:50:09;96472.06;;;12.25
71640;BMP280;60912;48.968;10.124;2022-12-31T01:52:40;96477.56;;;12.32
71640;BMP280;60912;48.968;10.124;2022-12-31T01:55:20;96481.75;;;12.41
71640;BMP280;60912;48.968;10.124;2022-12-31T01:57:48;96482.47;;;12.49
71640;BMP280;60912;48.968;10.124;2022-12-31T02:00:15;96483.38;;;12.52
71640;BMP280;60912;48.968;10.124;2022-12-31T02:02:40;96474.50;;;12.53
71640;BMP280;60912;48.968;10.124;2022-12-31T02:05:23;96487.78;;;12.62
71640;BMP280;60912;48.968;10.124;2022-12-31T02:07:52;96488.09;;;12.66
71640;BMP280;60912;48.968;10.124;2022-12-31T02:10:17;96495.66;;;12.66
71640;BMP280;60912;48.968;10.124;2022-12-31T02:12:43;96486.25;;;12.76
71640;BMP280;60912;48.968;10.124;2022-12-31T02:15:08;96476.03;;;12.86
71640;BMP280;60912;48.968;10.124;2022-12-31T02:17:49;96477.31;;;12.85
71640;BMP280;60912;48.968;10.124;2022-12-31T02:20:30;96488.56;;;12.87
71640;BMP280;60912;48.968;10.124;2022-12-31T02:23:28;96490.53;;;12.95
71640;BMP280;60912;48.968;10.124;2022-12-31T02:31:34;96491.03;;;13.08
71640;BMP280;60912;48.968;10.124;2022-12-31T02:34:30;96486.22;;;13.09
71640;BMP280;60912;48.968;10.124;2022-12-31T02:36:58;96493.06;;;13.08
71640;BMP280;60912;48.968;10.124;2022-12-31T02:39:25;96497.47;;;13.11
71640;BMP280;60912;48.968;10.124;2022-12-31T02:41:51;96508.53;;;13.11
71640;BMP280;60912;48.968;10.124;2022-12-31T02:44:32;96507.06;;;13.10
71640;BMP280;60912;48.968;10.124;2022-12-31T02:57:35;96494.44;;;12.92
71640;BMP280;60912;48.968;10.124;2022-12-31T03:00:04;96504.56;;;12.97
71640;BMP280;60912;48.968;10.124;2022-12-31T03:02:50;96505.88;;;13.20
71640;BMP280;60912;48.968;10.124;2022-12-31T03:05:20;96498.31;;;13.21
71640;BMP280;60912;48.968;10.124;2022-12-31T03:07:47;96504.13;;;13.08
71640;BMP280;60912;48.968;10.124;2022-12-31T03:10:12;96504.91;;;13.01
71640;BMP280;60912;48.968;10.124;2022-12-31T03:12:38;96501.00;;;13.04
71640;BMP280;60912;48.968;10.124;2022-12-31T03:15:23;96514.09;;;13.03
71640;BMP280;60912;48.968;10.124;2022-12-31T03:18:04;96522.94;;;13.09
71640;BMP280;60912;48.968;10.124;2022-12-31T03:20:36;96511.47;;;13.13
71640;BMP280;60912;48.968;10.124;2022-12-31T03:23:38;96512.56;;;13.17
71640;BMP280;60912;48.968;10.124;2022-12-31T03:26:05;96509.22;;;13.19
71640;BMP280;60912;48.968;10.124;2022-12-31T03:28:35;96508.88;;;13.15
71640;BMP280;60912;48.968;10.124;2022-12-31T03:31:02;96507.75;;;13.18
71640;BMP280;60912;48.968;10.124;2022-12-31T03:33:32;96504.41;;;13.19
71640;BMP280;60912;48.968;10.124;2022-12-31T03:36:09;96510.34;;;13.16
71640;BMP280;60912;48.968;10.124;2022-12-31T03:38:35;96506.69;;;13.13
71640;BMP280;60912;48.968;10.124;2022-12-31T03:41:00;96511.47;;;13.13
71640;BMP280;60912;48.968;10.124;2022-12-31T03:43:26;96512.94;;;13.14
71640;BMP280;60912;48.968;10.124;2022-12-31T03:45:53;96514.44;;;13.15
71640;BMP280;60912;48.968;10.124;2022-12-31T03:48:20;96519.50;;;13.26
71640;BMP280;60912;48.968;10.124;2022-12-31T03:50:46;96515.06;;;13.30
71640;BMP280;60912;48.968;10.124;2022-12-31T03:53:11;96522.41;;;13.36
71640;BMP280;60912;48.968;10.124;2022-12-31T03:55:36;96525.53;;;13.32
71640;BMP280;60912;48.968;10.124;2022-12-31T03:58:02;96533.81;;;13.40
71640;BMP280;60912;48.968;10.124;2022-12-31T04:00:27;96525.44;;;13.47
71640;BMP280;60912;48.968;10.124;2022-12-31T04:02:53;96519.13;;;13.54
71640;BMP280;60912;48.968;10.124;2022-12-31T04:05:18;96528.16;;;13.55
71640;BMP280;60912;48.968;10.124;2022-12-31T04:07:44;96533.28;;;13.58
71640;BMP280;60912;48.968;10.124;2022-12-31T04:10:12;96525.16;;;13.60
71640;BMP280;60912;48.968;10.124;2022-12-31T04:12:38;96528.44;;;13.66
71640;BMP280;60912;48.968;10.124;2022-12-31T04:15:05;96524.94;;;13.66
71640;BMP280;60912;48.968;10.124;2022-12-31T04:17:30;96545.47;;;13.63
71640;BMP280;60912;48.968;10.124;2022-12-31T04:19:56;96540.81;;;13.65
71640;BMP280;60912;48.968;10.124;2022-12-31T04:22:21;96544.09;;;13.71
71640;BMP280;60912;48.968;10.124;2022-12-31T04:24:47;96531.91;;;13.74
71640;BMP280;60912;48.968;10.124;2022-12-31T04:27:13;96543.88;;;13.77
71640;BMP280;60912;48.968;10.124;2022-12-31T04:29:38;96541.50;;;13.73
71640;BMP280;60912;48.968;10.124;2022-12-31T04:32:04;96546.38;;;13.65
71640;BMP280;60912;48.968;10.124;2022-12-31T04:34:30;96541.31;;;13.71
71640;BMP280;60912;48.968;10.124;2022-12-31T04:36:56;96560.09;;;13.80
71640;BMP280;60912;48.968;10.124;2022-12-31T04:39:21;96548.22;;;13.88
71640;BMP280;60912;48.968;10.124;2022-12-31T04:41:47;96557.03;;;13.94
71640;BMP280;60912;48.968;10.124;2022-12-31T04:44:12;96556.84;;;13.92
71640;BMP280;60912;48.968;10.124;2022-12-31T04:46:38;96561.75;;;14.01
71640;BMP280;60912;48.968;10.124;2022-12-31T04:49:03;96558.16;;;14.08
71640;BMP280;60912;48.968;10.124;2022-12-31T04:51:29;96563.56;;;14.06
71640;BMP280;60912;48.968;10.124;2022-12-31T04:53:55;96568.38;;;14.05
71640;BMP280;60912;48.968;10.124;2022-12-31T04:56:20;96558.69;;;14.14
71640;BMP280;60912;48.968;10.124;2022-12-31T04:58:46;96557.69;;;14.19
71640;BMP280;60912;48.968;10.124;2022-12-31T05:01:12;96563.09;;;14.17
71640;BMP280;60912;48.968;10.124;2022-12-31T05:03:38;96560.91;;;14.15
71640;BMP280;60912;48.968;10.124;2022-12-31T05:06:07;96568.94;;;14.21
71640;BMP280;60912;48.968;10.124;2022-12-31T05:08:33;96570.44;;;14.22
71640;BMP280;60912;48.968;10.124;2022-12-31T05:10:59;96569.28;;;14.25
71640;BMP280;60912;48.968;10.124;2022-12-31T05:13:25;96569.75;;;14.31
71640;BMP280;60912;48.968;10.124;2022-12-31T05:15:51;96576.78;;;14.32
71640;BMP280;60912;48.968;10.124;2022-12-31T05:18:17;96567.72;;;14.32
71640;BMP280;60912;48.968;10.124;2022-12-31T05:20:42;96572.88;;;14.35
71640;BMP280;60912;48.968;10.124;2022-12-31T05:23:08;96577.47;;;14.40
71640;BMP280;60912;48.968;10.124;2022-12-31T05:25:33;96582.28;;;14.40
71640;BMP280;60912;48.968;10.124;2022-12-31T05:27:59;96577.19;;;14.46
71640;BMP280;60912;48.968;10.124;2022-12-31T05:30:24;96578.94;;;14.41
71640;BMP280;60912;48.968;10.124;2022-12-31T05:32:50;96583.50;;;14.46
71640;BMP280;60912;48.968;10.124;2022-12-31T05:35:15;96578.94;;;14.41
71640;BMP280;60912;48.968;10.124;2022-12-31T05:37:41;96589.78;;;14.47
71640;BMP280;60912;48.968;10.124;2022-12-31T05:40:07;96591.31;;;14.57
71640;BMP280;60912;48.968;10.124;2022-12-31T05:42:33;96588.13;;;14.61
71640;BMP280;60912;48.968;10.124;2022-12-31T05:44:58;96582.56;;;14.61
71640;BMP280;60912;48.968;10.124;2022-12-31T05:47:24;96584.47;;;14.58
71640;BMP280;60912;48.968;10.124;2022-12-31T05:49:49;96586.75;;;14.52
71640;BMP280;60912;48.968;10.124;2022-12-31T05:52:15;96586.03;;;14.52
71640;BMP280;60912;48.968;10.124;2022-12-31T05:54:40;96589.38;;;14.50
71640;BMP280;60912;48.968;10.124;2022-12-31T05:57:06;96584.72;;;14.53
71640;BMP280;60912;48.968;10.124;2022-12-31T05:59:31;96607.78;;;14.55
71640;BMP280;60912;48.968;10.124;2022-12-31T06:01:57;96610.00;;;14.57
71640;BMP280;60912;48.968;10.124;2022-12-31T06:04:23;96602.34;;;14.65
71640;BMP280;60912;48.968;10.124;2022-12-31T06:06:49;96593.91;;;14.72
71640;BMP280;60912;48.968;10.124;2022-12-31T06:09:15;96600.94;;;14.73
71640;BMP280;60912;48.968;10.124;2022-12-31T06:11:41;96612.34;;;14.60
71640;BMP280;60912;48.968;10.124;2022-12-31T06:14:07;96612.25;;;14.68
71640;BMP280;60912;48.968;10.124;2022-12-31T06:16:32;96621.50;;;14.70
71640;BMP280;60912;48.968;10.124;2022-12-31T06:18:57;96615.16;;;14.78
71640;BMP280;60912;48.968;10.124;2022-12-31T06:21:23;96613.84;;;14.79
71640;BMP280;60912;48.968;10.124;2022-12-31T06:23:48;96608.94;;;14.87
71640;BMP280;60912;48.968;10.124;2022-12-31T06:26:15;96617.72;;;14.93
71640;BMP280;60912;48.968;10.124;2022-12-31T06:28:43;96619.19;;;14.94
71640;BMP280;60912;48.968;10.124;2022-12-31T06:31:11;96627.66;;;14.96
71640;BMP280;60912;48.968;10.124;2022-12-31T06:33:36;96629.56;;;14.93
71640;BMP280;60912;48.968;10.124;2022-12-31T06:36:04;96634.47;;;14.85
71640;BMP280;60912;48.968;10.124;2022-12-31T06:38:31;96625.75;;;14.89
71640;BMP280;60912;48.968;10.124;2022-12-31T06:41:02;96621.50;;;14.88
71640;BMP280;60912;48.968;10.124;2022-12-31T06:43:27;96638.63;;;14.94
71640;BMP280;60912;48.968;10.124;2022-12-31T06:45:53;96631.34;;;14.98
71640;BMP280;60912;48.968;10.124;2022-12-31T06:48:18;96619.19;;;14.94
71640;BMP280;60912;48.968;10.124;2022-12-31T06:50:43;96620.81;;;14.80
71640;BMP280;60912;48.968;10.124;2022-12-31T06:53:09;96625.25;;;14.83
71640;BMP280;60912;48.968;10.124;2022-12-31T06:55:34;96629.16;;;14.80
71640;BMP280;60912;48.968;10.124;2022-12-31T06:58:00;96631.63;;;14.76
71640;BMP280;60912;48.968;10.124;2022-12-31T07:00:25;96634.13;;;14.81
71640;BMP280;60912;48.968;10.124;2022-12-31T07:03:22;96640.19;;;14.87
71640;BMP280;60912;48.968;10.124;2022-12-31T07:05:57;96648.94;;;14.84
71640;BMP280;60912;48.968;10.124;2022-12-31T07:11:18;96648.00;;;14.98
71640;BMP280;60912;48.968;10.124;2022-12-31T07:19:15;96660.59;;;14.99
71640;BMP280;60912;48.968;10.124;2022-12-31T07:21:42;96666.47;;;15.03
71640;BMP280;60912;48.968;10.124;2022-12-31T07:24:09;96670.38;;;15.00
71640;BMP280;60912;48.968;10.124;2022-12-31T07:29:37;96672.44;;;15.00
71640;BMP280;60912;48.968;10.124;2022-12-31T07:32:20;96666.88;;;15.00
71640;BMP280;60912;48.968;10.124;2022-12-31T07:34:59;96680.91;;;15.02
71640;BMP280;60912;48.968;10.124;2022-12-31T07:43:13;96677.28;;;15.09
71640;BMP280;60912;48.968;10.124;2022-12-31T07:45:57;96674.69;;;15.11
71640;BMP280;60912;48.968;10.124;2022-12-31T07:48:27;96679.34;;;15.08
71640;BMP280;60912;48.968;10.124;2022-12-31T07:50:54;96672.97;;;15.15
71640;BMP280;60912;48.968;10.124;2022-12-31T07:53:24;96676.63;;;15.18
71640;BMP280;60912;48.968;10.124;2022-12-31T07:55:55;96680.00;;;15.16
71640;BMP280;60912;48.968;10.124;2022-12-31T08:01:10;96676.97;;;15.22
71640;BMP280;60912;48.968;10.124;2022-12-31T08:03:46;96677.34;;;15.18
71640;BMP280;60912;48.968;10.124;2022-12-31T08:09:32;96685.78;;;15.28
71640;BMP280;60912;48.968;10.124;2022-12-31T08:12:01;96680.22;;;15.28
71640;BMP280;60912;48.968;10.124;2022-12-31T08:14:27;96686.41;;;15.36
71640;BMP280;60912;48.968;10.124;2022-12-31T08:16:54;96689.03;;;15.34
71640;BMP280;60912;48.968;10.124;2022-12-31T08:19:30;96690.81;;;15.39
71640;BMP280;60912;48.968;10.124;2022-12-31T08:22:07;96699.78;;;15.47
71640;BMP280;60912;48.968;10.124;2022-12-31T08:30:21;96702.81;;;15.42
71640;BMP280;60912;48.968;10.124;2022-12-31T08:33:09;96700.28;;;15.36
71640;BMP280;60912;48.968;10.124;2022-12-31T08:41:27;96709.06;;;15.59
71640;BMP280;60912;48.968;10.124;2022-12-31T09:24:42;96751.44;;;16.59
71640;BMP280;60912;48.968;10.124;2022-12-31T10:26:05;96777.16;;;17.35
71640;BMP280;60912;48.968;10.124;2022-12-31T10:50:45;96761.50;;;17.99
71640;BMP280;60912;48.968;10.124;2022-12-31T11:02:30;96758.69;;;18.39
71640;BMP280;60912;48.968;10.124;2022-12-31T11:11:57;96758.25;;;18.43
71640;BMP280;60912;48.968;10.124;2022-12-31T11:24:17;96745.97;;;18.57
71640;BMP280;60912;48.968;10.124;2022-12-31T11:57:53;96725.16;;;18.49
71640;BMP280;60912;48.968;10.124;2022-12-31T12:00:51;96746.81;;;18.39
71640;BMP280;60912;48.968;10.124;2022-12-31T12:03:38;96736.97;;;18.38
71640;BMP280;60912;48.968;10.124;2022-12-31T12:06:14;96742.03;;;18.51
71640;BMP280;60912;48.968;10.124;2022-12-31T12:09:10;96733.53;;;18.70
71640;BMP280;60912;48.968;10.124;2022-12-31T12:11:55;96726.22;;;18.65
71640;BMP280;60912;48.968;10.124;2022-12-31T12:14:56;96730.25;;;18.74
71640;BMP280;60912;48.968;10.124;2022-12-31T12:17:28;96731.94;;;18.67
71640;BMP280;60912;48.968;10.124;2022-12-31T12:20:42;96722.22;;;18.68
71640;BMP280;60912;48.968;10.124;2022-12-31T12:23:38;96728.94;;;18.75
71640;BMP280;60912;48.968;10.124;2022-12-31T12:26:22;96728.41;;;18.88
71640;BMP280;60912;48.968;10.124;2022-12-31T12:28:52;96722.28;;;18.80
71640;BMP280;60912;48.968;10.124;2022-12-31T12:31:28;96727.38;;;18.83
71640;BMP280;60912;48.968;10.124;2022-12-31T12:33:57;96729.31;;;19.02
71640;BMP280;60912;48.968;10.124;2022-12-31T12:39:54;96710.44;;;18.91
71640;BMP280;60912;48.968;10.124;2022-12-31T12:42:44;96705.38;;;18.99
71640;BMP280;60912;48.968;10.124;2022-12-31T12:45:48;96707.13;;;18.83
71640;BMP280;60912;48.968;10.124;2022-12-31T12:48:37;96707.25;;;18.85
71640;BMP280;60912;48.968;10.124;2022-12-31T13:01:24;96710.16;;;18.87
71640;BMP280;60912;48.968;10.124;2022-12-31T13:07:18;96707.91;;;18.74
71640;BMP280;60912;48.968;10.124;2022-12-31T13:15:49;96709.63;;;18.67
71640;BMP280;60912;48.968;10.124;2022-12-31T13:18:31;96697.44;;;18.62
71640;BMP280;60912;48.968;10.124;2022-12-31T13:24:00;96696.63;;;18.72
71640;BMP280;60912;48.968;10.124;2022-12-31T13:27:01;96691.44;;;18.78
71640;BMP280;60912;48.968;10.124;2022-12-31T13:29:31;96689.00;;;18.72
71640;BMP280;60912;48.968;10.124;2022-12-31T13:31:58;96691.06;;;18.72
71640;BMP280;60912;48.968;10.124;2022-12-31T13:34:32;96687.78;;;18.75
71640;BMP280;60912;48.968;10.124;2022-12-31T13:37:04;96691.16;;;18.74
71640;BMP280;60912;48.968;10.124;2022-12-31T13:39:37;96694.03;;;18.64
71640;BMP280;60912;48.968;10.124;2022-12-31T13:42:19;96694.50;;;18.60
71640;BMP280;60912;48.968;10.124;2022-12-31T13:45:02;96692.09;;;18.45
71640;BMP280;60912;48.968;10.124;2022-12-31T13:47:32;96702.34;;;18.31
71640;BMP280;60912;48.968;10.124;2022-12-31T13:50:26;96695.69;;;18.36
71640;BMP280;60912;48.968;10.124;2022-12-31T13:53:00;96690.69;;;18.44
71640;BMP280;60912;48.968;10.124;2022-12-31T13:55:36;96688.13;;;18.48
71640;BMP280;60912;48.968;10.124;2022-12-31T14:00:46;96698.22;;;18.32
71640;BMP280;60912;48.968;10.124;2022-12-31T14:03:18;96699.28;;;18.27
71640;BMP280;60912;48.968;10.124;2022-12-31T14:08:22;96692.75;;;18.13
71640;BMP280;60912;48.968;10.124;2022-12-31T14:18:59;96709.28;;;17.90
71640;BMP280;60912;48.968;10.124;2022-12-31T14:21:38;96710.19;;;17.83
71640;BMP280;60912;48.968;10.124;2022-12-31T14:24:15;96704.25;;;17.67
71640;BMP280;60912;48.968;10.124;2022-12-31T14:26:50;96698.81;;;17.59
71640;BMP280;60912;48.968;10.124;2022-12-31T14:37:23;96696.84;;;17.22
71640;BMP280;60912;48.968;10.124;2022-12-31T14:40:13;96704.63;;;17.23
71640;BMP280;60912;48.968;10.124;2022-12-31T14:48:08;96710.91;;;16.95
71640;BMP280;60912;48.968;10.124;2022-12-31T14:50:36;96709.03;;;16.88
71640;BMP280;60912;48.968;10.124;2022-12-31T14:55:29;96706.09;;;16.86
71640;BMP280;60912;48.968;10.124;2022-12-31T14:57:59;96712.84;;;16.83
71640;BMP280;60912;48.968;10.124;2022-12-31T15:00:33;96719.44;;;16.78
71640;BMP280;60912;48.968;10.124;2022-12-31T15:05:36;96719.09;;;16.54
71640;BMP280;60912;48.968;10.124;2022-12-31T15:11:04;96720.47;;;16.17
71640;BMP280;60912;48.968;10.124;2022-12-31T15:24:23;96725.72;;;15.59
71640;BMP280;60912;48.968;10.124;2022-12-31T15:27:24;96743.31;;;15.45
71640;BMP280;60912;48.968;10.124;2022-12-31T15:29:52;96743.81;;;15.34
71640;BMP280;60912;48.968;10.124;2022-12-31T15:32:22;96748.06;;;15.17
71640;BMP280;60912;48.968;10.124;2022-12-31T15:35:00;96740.34;;;14.99
71640;BMP280;60912;48.968;10.124;2022-12-31T15:40:25;96741.13;;;14.74
71640;BMP280;60912;48.968;10.124;2022-12-31T15:43:13;96743.81;;;14.65
71640;BMP280;60912;48.968;10.124;2022-12-31T15:45:41;96740.53;;;14.59
71640;BMP280;60912;48.968;10.124;2022-12-31T15:48:18;96739.09;;;14.50
71640;BMP280;60912;48.968;10.124;2022-12-31T15:50:48;96741.38;;;14.44
71640;BMP280;60912;48.968;10.124;2022-12-31T15:55:58;96740.19;;;14.30
71640;BMP280;60912;48.968;10.124;2022-12-31T15:58:33;96740.25;;;14.22
71640;BMP280;60912;48.968;10.124;2022-12-31T16:01:11;96738.28;;;14.15
71640;BMP280;60912;48.968;10.124;2022-12-31T16:03:44;96742.38;;;14.07
71640;BMP280;60912;48.968;10.124;2022-12-31T16:06:13;96744.97;;;14.05
71640;BMP280;60912;48.968;10.124;2022-12-31T16:08:43;96746.13;;;14.02
71640;BMP280;60912;48.968;10.124;2022-12-31T16:11:09;96744.69;;;13.93
71640;BMP280;60912;48.968;10.124;2022-12-31T16:13:44;96730.34;;;13.79
71640;BMP280;60912;48.968;10.124;2022-12-31T16:18:45;96741.84;;;13.68
71640;BMP280;60912;48.968;10.124;2022-12-31T16:21:32;96743.94;;;13.60
71640;BMP280;60912;48.968;10.124;2022-12-31T16:24:25;96740.84;;;13.49
71640;BMP280;60912;48.968;10.124;2022-12-31T16:26:52;96745.88;;;13.35
71640;BMP280;60912;48.968;10.124;2022-12-31T16:29:21;96747.72;;;13.32
71640;BMP280;60912;48.968;10.124;2022-12-31T16:31:48;96742.75;;;13.31
71640;BMP280;60912;48.968;10.124;2022-12-31T16:34:16;96746.28;;;13.24
71640;BMP280;60912;48.968;10.124;2022-12-31T16:41:52;96747.97;;;13.04
71640;BMP280;60912;48.968;10.124;2022-12-31T16:44:30;96747.25;;;12.96
71640;BMP280;60912;48.968;10.124;2022-12-31T16:46:58;96751.53;;;12.90
71640;BMP280;60912;48.968;10.124;2022-12-31T16:49:24;96744.50;;;12.88
71640;BMP280;60912;48.968;10.124;2022-12-31T16:51:51;96743.56;;;12.86
71640;BMP280;60912;48.968;10.124;2022-12-31T16:54:24;96749.81;;;12.79
71640;BMP280;60912;48.968;10.124;2022-12-31T16:56:52;96755.75;;;12.75
71640;BMP280;60912;48.968;10.124;2022-12-31T17:01:44;96752.44;;;12.62
71640;BMP280;60912;48.968;10.124;2022-12-31T17:04:15;96755.41;;;12.64
71640;BMP280;60912;48.968;10.124;2022-12-31T17:06:42;96754.09;;;12.65
71640;BMP280;60912;48.968;10.124;2022-12-31T17:09:16;96760.38;;;12.58
71640;BMP280;60912;48.968;10.124;2022-12-31T17:11:56;96756.88;;;12.57
71640;BMP280;60912;48.968;10.124;2022-12-31T17:14:24;96766.44;;;12.49
71640;BMP280;60912;48.968;10.124;2022-12-31T17:17:20;96770.13;;;12.43
71640;BMP280;60912;48.968;10.124;2022-12-31T17:19:49;96762.22;;;12.48
71640;BMP280;60912;48.968;10.124;2022-12-31T17:25:00;96766.44;;;12.49
71640;BMP280;60912;48.968;10.124;2022-12-31T17:27:26;96760.19;;;12.48
71640;BMP280;60912;48.968;10.124;2022-12-31T17:29:52;96761.66;;;12.49
71640;BMP280;60912;48.968;10.124;2022-12-31T17:32:35;96767.91;;;12.42
71640;BMP280;60912;48.968;10.124;2022-12-31T17:35:01;96760.19;;;12.48
71640;BMP280;60912;48.968;10.124;2022-12-31T17:37:29;96758.69;;;12.47
71640;BMP280;60912;48.968;10.124;2022-12-31T17:39:56;96758.50;;;12.45
71640;BMP280;60912;48.968;10.124;2022-12-31T17:42:36;96769.00;;;12.31
71640;BMP280;60912;48.968;10.124;2022-12-31T17:45:17;96753.72;;;12.30
71640;BMP280;60912;48.968;10.124;2022-12-31T17:47:45;96768.66;;;12.35
71640;BMP280;60912;48.968;10.124;2022-12-31T17:50:18;96773.06;;;12.38
71640;BMP280;60912;48.968;10.124;2022-12-31T17:52:46;96766.78;;;12.30
71640;BMP280;60912;48.968;10.124;2022-12-31T17:55:12;96769.19;;;12.26
71640;BMP280;60912;48.968;10.124;2022-12-31T17:57:45;96764.75;;;12.23
71640;BMP280;60912;48.968;10.124;2022-12-31T18:00:17;96769.19;;;12.26
71640;BMP280;60912;48.968;10.124;2022-12-31T18:02:43;96768.97;;;12.24
71640;BMP280;60912;48.968;10.124;2022-12-31T18:05:20;96780.78;;;12.24
71640;BMP280;60912;48.968;10.124;2022-12-31T18:07:46;96768.97;;;12.24
71640;BMP280;60912;48.968;10.124;2022-12-31T18:10:14;96777.09;;;12.29
71640;BMP280;60912;48.968;10.124;2022-12-31T18:12:41;96772.84;;;12.28
71640;BMP280;60912;48.968;10.124;2022-12-31T18:15:07;96769.56;;;12.30
71640;BMP280;60912;48.968;10.124;2022-12-31T18:17:35;96775.25;;;12.24
71640;BMP280;60912;48.968;10.124;2022-12-31T18:20:01;96783.16;;;12.20
71640;BMP280;60912;48.968;10.124;2022-12-31T18:22:26;96795.88;;;12.16
71640;BMP280;60912;48.968;10.124;2022-12-31T18:24:52;96787.41;;;12.14
71640;BMP280;60912;48.968;10.124;2022-12-31T18:27:19;96794.38;;;12.15
71640;BMP280;60912;48.968;10.124;2022-12-31T18:29:45;96791.44;;;12.13
71640;BMP280;60912;48.968;10.124;2022-12-31T18:32:22;96794.72;;;12.04
71640;BMP280;60912;48.968;10.124;2022-12-31T18:34:49;96795.28;;;12.10
71640;BMP280;60912;48.968;10.124;2022-12-31T18:37:15;96800.44;;;12.06
71640;BMP280;60912;48.968;10.124;2022-12-31T18:39:44;96792.13;;;11.98
71640;BMP280;60912;48.968;10.124;2022-12-31T18:42:12;96797.66;;;11.98
71640;BMP280;60912;48.968;10.124;2022-12-31T18:44:39;96797.59;;;11.90
71640;BMP280;60912;48.968;10.124;2022-12-31T18:47:16;96795.44;;;11.96
71640;BMP280;60912;48.968;10.124;2022-12-31T18:49:42;96795.63;;;11.98
71640;BMP280;60912;48.968;10.124;2022-12-31T18:52:17;96793.22;;;11.95
71640;BMP280;60912;48.968;10.124;2022-12-31T18:54:46;96801.84;;;11.91
71640;BMP280;60912;48.968;10.124;2022-12-31T18:57:13;96804.25;;;11.87
71640;BMP280;60912;48.968;10.124;2022-12-31T18:59:40;96792.81;;;11.83
71640;BMP280;60912;48.968;10.124;2022-12-31T19:02:13;96804.53;;;11.76
71640;BMP280;60912;48.968;10.124;2022-12-31T19:04:39;96798.47;;;11.70
71640;BMP280;60912;48.968;10.124;2022-12-31T19:07:04;96798.25;;;11.68
71640;BMP280;60912;48.968;10.124;2022-12-31T19:09:30;96803.44;;;11.72
71640;BMP280;60912;48.968;10.124;2022-12-31T19:11:56;96807.03;;;11.59
71640;BMP280;60912;48.968;10.124;2022-12-31T19:14:23;96806.66;;;11.55
71640;BMP280;60912;48.968;10.124;2022-12-31T19:16:51;96805.50;;;11.43
71640;BMP280;60912;48.968;10.124;2022-12-31T19:19:17;96806.41;;;11.45
71640;BMP280;60912;48.968;10.124;2022-12-31T19:21:43;96804.03;;;11.42
71640;BMP280;60912;48.968;10.124;2022-12-31T19:24:18;96796.25;;;11.33
71640;BMP280;60912;48.968;10.124;2022-12-31T19:26:43;96805.78;;;11.32
71640;BMP280;60912;48.968;10.124;2022-12-31T19:29:17;96812.53;;;11.23
71640;BMP280;60912;48.968;10.124;2022-12-31T19:31:43;96810.66;;;11.18
71640;BMP280;60912;48.968;10.124;2022-12-31T19:34:08;96809.69;;;11.08
71640;BMP280;60912;48.968;10.124;2022-12-31T19:36:34;96807.50;;;11.14